Saratoga, CA (95070)

2:15 PM PST on December 10, 2016 (GMT -0800)
Scotland Dr. near Glasgow Dr. | | Change Station

Elev 375 ft 37.27 °N, 122.02 °W | Updated 4 seconds ago

Rain
Rain
60.1 °F
Feels Like 60.1 °F
N
4.1
Wind Variable Wind from East
Gusts 6.9 mph

Today
High -- | Low -- °F
--% Chance of Precip.
Yesterday
High -- | Low -- °F
Precip. -- in
Pressure 30.05 in
Visibility 6.0 miles
Clouds Scattered Clouds 100 ft
Mostly Cloudy 3300 ft
Overcast 12000 ft
Dew Point 59 °F
Humidity 96%
Rainfall 0.25 in
Snow Depth Not available.
7:11 AM 4:50 PM
Waxing Gibbous, 86% visible
METAR KSJC 102153Z 12008KT 6SM -RA BR SCT001 BKN033 OVC120 16/14 A3005 RMK AO2 SLP176 P0016 T01610144
Pressure 30.05 in
Visibility 6.0 miles
Clouds Scattered Clouds 100 ft
Mostly Cloudy 3300 ft
Overcast 12000 ft
Dew Point 59 °F
Humidity 96%
Rainfall 0.25 in
Snow Depth Not available.
7:11 AM 4:50 PM
Waxing Gibbous, 86% visible
METAR KSJC 102153Z 12008KT 6SM -RA BR SCT001 BKN033 OVC120 16/14 A3005 RMK AO2 SLP176 P0016 T01610144

10-Day Weather Forecast

Almanac

Astronomy

Dec. 10, 2016 Rise Set
Actual Time
Civil Twilight
Nautical Twilight
Astronomical Twilight
Moon
Length of Visible Light
Length of Day
Tomorrow will be .
, % of the Moon is Illuminated

Today's Extremes

State Highs State Lows

Community

WunderPhotos

Upload Photos

1,956,672 photos uploaded!

WunderBlog® & News

Nearby

Air Quality

  Air Quality AQ Index Pollutant
Not available.

Snow Depth

Station Depth Elevation

Earthquake Activity

City Distance Mag. Time & Date
Minimum magnitude displayed is 2.5.

Coastal Water Temperatures

Place Temperature

Stations

Nearby Weather Stations

Station Location Temp. Windchill Dew Point Humidity Wind Precip. Elev Updated Type
                   

Watches & Warnings

There are currently no watches in effect.